Time;durP1;ratioP1;P1;durP2;ratioP2;P2;SDS_P1;SDS_P2;PMS_P1;PMS_P2;Temp;Humidity;BMP_temperature;BMP_pressure;BME280_temperature;BME280_humidity;BME280_pressure;Samples;Min_cycle;Max_cycle;Signal;HPM_P1;HPM_P2
2022/03/11 00:01:13;;;;;;;;;35.00;31.00;;;;;9.57;100.00;100941.91;5079586;27;44800;-82
2022/03/11 00:03:38;;;;;;;;;38.33;30.00;;;;;9.57;100.00;100940.09;5078959;27;45414;-84
2022/03/11 00:06:04;;;;;;;;;36.33;33.33;;;;;9.58;100.00;100946.28;5079679;27;45461;-83
2022/03/11 00:08:29;;;;;;;;;37.67;32.67;;;;;9.54;100.00;100932.34;5079805;27;45437;-83
2022/03/11 00:10:55;;;;;;;;;36.33;33.67;;;;;9.52;100.00;100929.78;5082222;27;44835;-83
2022/03/11 00:13:20;;;;;;;;;38.67;33.33;;;;;9.52;100.00;100931.56;5084598;27;45076;-82
2022/03/11 00:15:46;;;;;;;;;37.33;34.00;;;;;9.51;100.00;100928.06;5076596;27;44809;-82
2022/03/11 00:18:11;;;;;;;;;37.67;34.00;;;;;9.53;100.00;100930.66;5078889;27;44939;-82
2022/03/11 00:20:37;;;;;;;;;41.33;35.00;;;;;9.57;100.00;100920.69;5078713;27;44934;-82
2022/03/11 00:23:02;;;;;;;;;41.33;32.67;;;;;9.60;100.00;100926.66;5076686;27;47414;-82
2022/03/11 00:25:29;;;;;;;;;40.33;34.33;;;;;9.62;100.00;100922.13;5077926;27;44876;-83
2022/03/11 00:27:55;;;;;;;;;35.00;30.33;;;;;9.66;100.00;100922.78;5078492;27;45374;-83
2022/03/11 00:30:20;;;;;;;;;40.00;34.00;;;;;9.70;100.00;100926.97;5078119;27;44819;-82
2022/03/11 00:32:47;;;;;;;;;41.00;32.00;;;;;9.76;100.00;100923.94;5077924;27;45257;-81
2022/03/11 00:35:12;;;;;;;;;34.33;31.67;;;;;9.78;100.00;100920.25;5078151;27;44689;-82
2022/03/11 00:37:39;;;;;;;;;35.00;31.33;;;;;9.81;100.00;100918.34;5077453;27;44738;-82
2022/03/11 00:40:05;;;;;;;;;40.00;35.33;;;;;9.78;100.00;100901.69;5079542;27;45478;-82
2022/03/11 00:42:31;;;;;;;;;36.33;31.33;;;;;9.77;100.00;100905.28;5085869;27;45123;-82
2022/03/11 00:44:57;;;;;;;;;32.67;31.00;;;;;9.75;100.00;100908.97;5080280;27;45371;-83
2022/03/11 00:47:22;;;;;;;;;35.67;29.00;;;;;9.69;100.00;100902.25;5079138;27;44822;-80
2022/03/11 00:49:48;;;;;;;;;40.00;33.33;;;;;9.65;100.00;100892.75;5077521;27;44884;-81
2022/03/11 00:52:13;;;;;;;;;41.33;32.33;;;;;9.62;100.00;100900.91;5078668;27;45456;-81
2022/03/11 00:54:39;;;;;;;;;39.67;34.00;;;;;9.61;100.00;100898.34;5077759;27;45307;-81
2022/03/11 00:57:04;;;;;;;;;31.67;31.00;;;;;9.60;100.00;100891.34;5077297;27;45232;-81
2022/03/11 00:59:30;;;;;;;;;30.33;25.00;;;;;9.58;100.00;100885.28;5077715;27;45425;-81
2022/03/11 01:01:55;;;;;;;;;32.67;29.33;;;;;9.60;100.00;100886.03;5077492;27;45277;-81
2022/03/11 01:04:21;;;;;;;;;34.33;31.33;;;;;9.63;100.00;100877.91;5077547;27;44705;-82
2022/03/11 01:06:46;;;;;;;;;27.33;25.33;;;;;9.66;100.00;100873.25;5078116;27;44719;-81
2022/03/11 01:09:12;;;;;;;;;33.33;28.67;;;;;9.71;100.00;100868.50;5079672;27;45411;-82
2022/03/11 01:11:37;;;;;;;;;30.67;28.00;;;;;9.74;100.00;100868.31;5084027;27;45554;-82
2022/03/11 01:14:04;;;;;;;;;33.33;26.33;;;;;9.77;100.00;100870.81;5084674;27;44859;-82
2022/03/11 01:16:30;;;;;;;;;34.33;26.33;;;;;9.82;100.00;100877.63;5078210;27;44960;-82
2022/03/11 01:18:55;;;;;;;;;36.67;30.00;;;;;9.83;100.00;100866.91;5078312;27;44904;-81
2022/03/11 01:21:20;;;;;;;;;36.67;24.67;;;;;9.88;100.00;100874.59;5078009;27;45314;-80
2022/03/11 01:23:46;;;;;;;;;31.67;28.33;;;;;9.91;100.00;100869.06;5076160;27;44856;-81
2022/03/11 01:26:12;;;;;;;;;29.00;25.50;;;;;9.91;100.00;100864.66;5076227;27;45462;-82
2022/03/11 01:28:42;;;;;;;;;31.25;25.50;;;;;9.94;100.00;100859.13;5079999;27;45395;-80
2022/03/11 01:31:12;;;;;;;;;28.33;27.00;;;;;9.94;100.00;100858.28;5080850;27;45341;-80
2022/03/11 01:33:44;;;;;;;;;28.75;25.00;;;;;9.97;100.00;100855.44;5077963;27;44810;-82
2022/03/11 01:36:11;;;;;;;;;35.33;31.00;;;;;9.98;100.00;100858.00;5076993;27;44847;-81
2022/03/11 01:38:37;;;;;;;;;27.00;25.00;;;;;9.98;100.00;100849.19;5076528;27;45264;-81
2022/03/11 01:41:03;;;;;;;;;27.67;25.00;;;;;9.98;100.00;100849.19;5077394;27;45032;-81
2022/03/11 01:43:29;;;;;;;;;23.75;22.75;;;;;9.97;100.00;100848.34;5081625;27;45154;-81
2022/03/11 01:45:57;;;;;;;;;27.67;27.33;;;;;9.97;100.00;100850.13;5082327;27;45337;-81
2022/03/11 01:48:22;;;;;;;;;27.25;24.75;;;;;9.97;100.00;100845.69;5076930;27;44637;-81
2022/03/11 01:50:48;;;;;;;;;33.00;30.00;;;;;9.97;100.00;100842.19;5075995;27;45220;-82
2022/03/11 01:53:14;;;;;;;;;24.50;23.50;;;;;9.97;100.00;100831.56;5075799;27;45697;-80
2022/03/11 01:55:40;;;;;;;;;29.67;25.33;;;;;9.98;100.00;100826.16;5076424;27;44790;-81
2022/03/11 01:58:07;;;;;;;;;31.33;27.67;;;;;10.00;100.00;100829.53;5076264;27;45497;-81
2022/03/11 02:00:40;;;;;;;;;33.00;28.00;;;;;9.97;100.00;100827.09;5083395;27;47037;-80
2022/03/11 02:03:06;;;;;;;;;29.25;28.50;;;;;10.00;100.00;100828.69;5081303;27;45487;-82
2022/03/11 02:05:31;;;;;;;;;29.33;25.33;;;;;10.01;100.00;100830.44;5077083;27;44657;-81
2022/03/11 02:07:58;;;;;;;;;24.25;21.50;;;;;10.02;100.00;100827.66;5076166;27;45343;-82
2022/03/11 02:10:29;;;;;;;;;28.50;27.25;;;;;10.04;100.00;100835.53;5077099;27;46342;-81
2022/03/11 02:12:56;;;;;;;;;28.25;25.00;;;;;10.07;100.00;100835.34;5077250;27;44852;-83
2022/03/11 02:15:21;;;;;;;;;33.67;26.33;;;;;10.10;100.00;100831.63;5083293;27;45465;-82
2022/03/11 02:17:47;;;;;;;;;26.75;25.75;;;;;10.11;100.00;100828.88;5082206;28;45408;-81
2022/03/11 02:20:12;;;;;;;;;26.50;25.50;;;;;10.17;100.00;100819.69;5080609;27;47020;-80
2022/03/11 02:22:41;;;;;;;;;31.33;23.67;;;;;10.19;100.00;100823.91;5080969;27;44970;-81
2022/03/11 02:25:08;;;;;;;;;28.25;25.25;;;;;10.18;100.00;100824.88;5075813;27;44841;-81
2022/03/11 02:27:42;;;;;;;;;31.00;28.00;;;;;10.18;100.00;100822.22;5074666;27;45529;-81
2022/03/11 02:30:21;;;;;;;;;27.00;27.00;;;;;10.13;100.00;100826.97;5075769;27;45373;-81
2022/03/11 02:32:47;;;;;;;;;30.00;27.00;;;;;10.13;100.00;100823.47;5075990;27;45398;-82
2022/03/11 02:35:13;;;;;;;;;17.75;14.50;;;;;10.12;100.00;100812.00;5074484;27;44790;-80
2022/03/11 02:37:39;;;;;;;;;29.00;25.25;;;;;10.13;100.00;100812.84;5076361;28;44723;-81
2022/03/11 02:40:05;;;;;;;;;24.00;24.00;;;;;10.12;100.00;100819.13;5079224;27;45095;-81
2022/03/11 02:42:31;;;;;;;;;24.67;24.33;;;;;10.09;100.00;100809.53;5080221;27;44718;-81
2022/03/11 02:45:00;;;;;;;;;29.00;25.33;;;;;10.06;100.00;100804.44;5082032;27;45216;-81
2022/03/11 02:47:26;;;;;;;;;25.50;25.25;;;;;10.05;100.00;100800.06;5084535;27;45508;-82
2022/03/11 02:49:52;;;;;;;;;27.00;24.67;;;;;10.02;100.00;100798.47;5082221;27;45278;-81
2022/03/11 02:52:17;;;;;;;;;23.75;21.50;;;;;9.96;100.00;100787.38;5078496;27;45452;-82
2022/03/11 02:54:43;;;;;;;;;23.00;21.75;;;;;9.91;100.00;100803.63;5100053;27;44899;-82
2022/03/11 02:57:08;;;;;;;;;30.33;28.00;;;;;9.86;100.00;100792.41;5100163;27;45415;-82
2022/03/11 02:59:33;;;;;;;;;28.75;25.50;;;;;9.80;100.00;100795.47;5100474;27;45179;-82
2022/03/11 03:01:59;;;;;;;;;32.50;29.75;;;;;9.74;100.00;100798.50;5082639;27;44944;-81
2022/03/11 03:04:24;;;;;;;;;32.50;24.50;;;;;9.68;100.00;100794.44;5101318;27;45400;-82
2022/03/11 03:06:50;;;;;;;;;26.33;25.00;;;;;9.62;100.00;100792.16;5107756;27;44798;-82
2022/03/11 03:09:15;;;;;;;;;22.50;22.00;;;;;9.53;100.00;100782.97;5108830;27;45193;-82
2022/03/11 03:11:41;;;;;;;;;24.00;22.33;;;;;9.47;100.00;100779.84;5107813;27;45210;-81
2022/03/11 03:14:06;;;;;;;;;27.00;26.33;;;;;9.42;100.00;100776.63;5104632;27;44791;-82
2022/03/11 03:16:32;;;;;;;;;26.00;25.00;;;;;9.38;100.00;100767.13;5105136;27;45325;-82
2022/03/11 03:18:57;;;;;;;;;28.00;28.00;;;;;9.32;100.00;100763.06;5102797;27;45157;-82
2022/03/11 03:21:25;;;;;;;;;25.75;24.25;;;;;9.25;100.00;100759.97;5105713;27;44759;-80
2022/03/11 03:23:51;;;;;;;;;24.00;20.67;;;;;9.19;100.00;100752.38;5103756;27;44775;-82
2022/03/11 03:26:16;;;;;;;;;24.67;23.67;;;;;9.12;100.00;100743.09;5104687;27;45396;-82
2022/03/11 03:28:42;;;;;;;;;23.00;23.00;;;;;9.08;100.00;100754.81;5101397;27;45445;-81
2022/03/11 03:31:07;;;;;;;;;24.00;23.00;;;;;9.05;100.00;100746.22;5099356;27;45589;-82
2022/03/11 03:33:33;;;;;;;;;24.67;21.67;;;;;9.01;100.00;100749.03;5099012;27;45527;-82
2022/03/11 03:35:58;;;;;;;;;26.67;23.00;;;;;8.97;100.00;100747.53;5098885;27;45438;-82
2022/03/11 03:38:24;;;;;;;;;22.00;18.33;;;;;8.94;100.00;100750.34;5098894;27;45453;-81
2022/03/11 03:40:49;;;;;;;;;25.33;24.67;;;;;8.90;100.00;100753.28;5097557;27;45472;-82
2022/03/11 03:43:14;;;;;;;;;32.00;24.33;;;;;8.86;100.00;100744.66;5099068;27;45257;-82
2022/03/11 03:45:40;;;;;;;;;23.33;21.00;;;;;8.83;100.00;100747.50;5099188;27;45354;-82
2022/03/11 03:48:06;;;;;;;;;32.33;21.33;;;;;8.80;100.00;100753.00;5098603;27;45098;-82
2022/03/11 03:50:31;;;;;;;;;28.00;27.67;;;;;8.75;100.00;100749.72;5096536;27;44749;-81
2022/03/11 03:52:57;;;;;;;;;24.33;24.33;;;;;8.74;100.00;100745.38;5088165;27;44871;-81
2022/03/11 03:55:22;;;;;;;;;21.67;20.00;;;;;8.72;100.00;100740.19;5063843;28;45499;-81
2022/03/11 03:57:47;;;;;;;;;22.33;20.00;;;;;8.69;100.00;100734.22;5063063;28;45178;-82
2022/03/11 04:00:14;;;;;;;;;32.00;25.00;;;;;8.67;100.00;100736.97;5058588;28;44777;-80
2022/03/11 04:02:50;;;;;;;;;23.33;21.67;;;;;8.62;100.00;100731.09;5062679;28;45392;-81
2022/03/11 04:05:17;;;;;;;;;27.33;25.00;;;;;8.58;100.00;100724.25;5062436;28;44714;-80
2022/03/11 04:07:44;;;;;;;;;29.67;26.67;;;;;8.56;100.00;100719.97;5056614;28;46146;-80
2022/03/11 04:10:12;;;;;;;;;29.67;23.67;;;;;8.54;100.00;100727.16;5056299;28;45529;-81
2022/03/11 04:12:38;;;;;;;;;21.00;19.00;;;;;8.49;100.00;100727.44;5058007;28;45217;-81
2022/03/11 04:15:04;;;;;;;;;19.67;18.67;;;;;8.45;100.00;100725.91;5059500;28;45469;-81
2022/03/11 04:17:29;;;;;;;;;32.67;25.33;;;;;8.42;100.00;100726.97;5058058;27;45135;-81
2022/03/11 04:19:55;;;;;;;;;28.33;25.67;;;;;8.39;100.00;100718.34;5060129;27;45429;-82
2022/03/11 04:22:20;;;;;;;;;27.00;22.00;;;;;8.37;100.00;100712.28;5068214;27;45390;-81
2022/03/11 04:24:47;;;;;;;;;21.00;21.00;;;;;8.34;100.00;100715.06;5065470;28;44775;-80
2022/03/11 04:27:13;;;;;;;;;24.67;21.67;;;;;8.33;100.00;100716.00;5063873;27;45636;-82
2022/03/11 04:29:38;;;;;;;;;22.00;19.00;;;;;8.31;100.00;100723.19;5062062;28;45490;-83
2022/03/11 04:32:05;;;;;;;;;21.00;21.00;;;;;8.28;100.00;100726.88;5060203;28;44705;-84
2022/03/11 04:34:30;;;;;;;;;25.67;22.67;;;;;8.25;100.00;100727.03;5058461;28;45151;-82
2022/03/11 04:36:56;;;;;;;;;28.00;23.67;;;;;8.23;100.00;100726.28;5057972;28;45072;-82
2022/03/11 04:39:24;;;;;;;;;18.00;18.00;;;;;8.21;100.00;100723.69;5058115;28;45382;-83
2022/03/11 04:41:52;;;;;;;;;26.67;20.33;;;;;8.19;100.00;100716.81;5057821;28;45320;-83
2022/03/11 04:44:18;;;;;;;;;24.00;20.33;;;;;8.20;100.00;100724.66;5057606;28;45500;-83
2022/03/11 04:46:43;;;;;;;;;29.00;17.33;;;;;8.17;100.00;100726.59;5056341;28;47196;-83
2022/03/11 04:49:09;;;;;;;;;27.00;22.67;;;;;8.14;100.00;100730.31;5058328;28;45319;-84
2022/03/11 04:51:34;;;;;;;;;21.33;20.67;;;;;8.12;100.00;100732.19;5060547;28;45228;-83
2022/03/11 04:54:00;;;;;;;;;24.00;21.00;;;;;8.10;100.00;100733.22;5065448;28;45464;-83
2022/03/11 04:56:26;;;;;;;;;22.33;21.33;;;;;8.07;100.00;100722.78;5064541;28;45113;-82
2022/03/11 04:58:51;;;;;;;;;22.00;20.33;;;;;8.04;100.00;100720.34;5059708;28;45190;-83
2022/03/11 05:01:16;;;;;;;;;26.33;20.67;;;;;8.00;100.00;100711.72;5060884;28;45159;-84
2022/03/11 05:03:42;;;;;;;;;18.25;15.50;;;;;8.00;100.00;100714.34;5065665;27;45522;-82
2022/03/11 05:06:07;;;;;;;;;23.25;19.00;;;;;7.98;100.00;100716.25;5065753;28;44933;-83
2022/03/11 05:08:33;;;;;;;;;22.33;21.00;;;;;7.96;100.00;100718.97;5066797;27;44586;-85
2022/03/11 05:10:58;;;;;;;;;22.75;22.00;;;;;7.94;100.00;100714.72;5058888;28;45262;-84
2022/03/11 05:13:24;;;;;;;;;16.25;14.25;;;;;7.93;100.00;100713.84;5063137;28;44896;-83
2022/03/11 05:15:49;;;;;;;;;22.50;19.25;;;;;7.94;100.00;100697.03;5063603;28;44832;-82
2022/03/11 05:18:14;;;;;;;;;24.33;22.00;;;;;7.94;100.00;100697.03;5063969;28;44775;-84
2022/03/11 05:20:40;;;;;;;;;18.67;17.00;;;;;7.93;100.00;100698.00;5063310;28;45229;-83
2022/03/11 05:23:05;;;;;;;;;21.33;18.00;;;;;7.92;100.00;100700.69;5061093;28;44911;-84
2022/03/11 05:25:31;;;;;;;;;21.33;19.67;;;;;7.91;100.00;100696.34;5059760;28;45368;-83
2022/03/11 05:27:57;;;;;;;;;24.00;17.00;;;;;7.88;100.00;100697.41;5062886;28;44840;-84
2022/03/11 05:30:22;;;;;;;;;23.00;19.67;;;;;7.86;100.00;100691.31;5064951;28;45622;-83
2022/03/11 05:32:48;;;;;;;;;18.00;16.25;;;;;7.86;100.00;100693.13;5064625;28;45423;-83
2022/03/11 05:35:16;;;;;;;;;19.50;18.50;;;;;7.85;100.00;100684.34;5066956;28;45411;-84
2022/03/11 05:37:42;;;;;;;;;23.25;20.50;;;;;7.83;100.00;100688.88;5069569;27;44678;-85
2022/03/11 05:40:09;;;;;;;;;18.75;18.75;;;;;7.83;100.00;100680.06;5063985;28;44843;-83
2022/03/11 05:42:34;;;;;;;;;18.00;18.00;;;;;7.80;100.00;100675.81;5063523;28;44795;-82
2022/03/11 05:44:59;;;;;;;;;22.67;21.00;;;;;7.81;100.00;100677.50;5061376;28;45364;-83
2022/03/11 05:47:25;;;;;;;;;20.33;16.00;;;;;7.79;100.00;100676.75;5065625;28;45317;-83
2022/03/11 05:49:50;;;;;;;;;23.67;19.00;;;;;7.77;100.00;100670.69;5062735;28;44858;-83
2022/03/11 05:52:17;;;;;;;;;23.33;20.33;;;;;7.75;100.00;100675.22;5061618;28;44845;-83
2022/03/11 05:54:42;;;;;;;;;15.75;15.00;;;;;7.73;100.00;100679.72;5056040;28;45398;-82
2022/03/11 05:57:08;;;;;;;;;21.00;21.00;;;;;7.70;100.00;100675.47;5056968;28;45334;-85
2022/03/11 05:59:34;;;;;;;;;19.00;15.00;;;;;7.69;100.00;100670.28;5056979;28;45771;-85
2022/03/11 06:01:59;;;;;;;;;21.25;15.25;;;;;7.67;100.00;100680.91;5057076;27;45297;-85
2022/03/11 06:04:25;;;;;;;;;19.33;18.33;;;;;7.69;100.00;100675.56;5056308;28;45185;-84
2022/03/11 06:06:50;;;;;;;;;19.33;17.33;;;;;7.69;100.00;100676.41;5056231;28;45397;-84
2022/03/11 06:09:16;;;;;;;;;20.67;16.00;;;;;7.70;100.00;100685.19;5059950;28;45426;-85
2022/03/11 06:11:41;;;;;;;;;19.00;16.00;;;;;7.72;100.00;100675.38;5063141;28;45248;-84
2022/03/11 06:14:07;;;;;;;;;19.33;17.33;;;;;7.75;100.00;100679.66;5061925;28;44916;-85
2022/03/11 06:16:34;;;;;;;;;13.33;13.00;;;;;7.76;100.00;100676.91;5058492;28;44744;-84
2022/03/11 06:19:00;;;;;;;;;18.67;18.00;;;;;7.79;100.00;100681.19;5059299;28;45260;-85
2022/03/11 06:21:25;;;;;;;;;14.25;14.25;;;;;7.85;100.00;100678.19;5058485;27;44818;-83
2022/03/11 06:23:51;;;;;;;;;15.33;15.33;;;;;7.89;100.00;100672.66;5057469;28;45470;-84
2022/03/11 06:26:18;;;;;;;;;17.00;13.00;;;;;7.93;100.00;100671.53;5056236;28;45445;-85
2022/03/11 06:28:43;;;;;;;;;18.33;15.33;;;;;8.02;100.00;100671.94;5056566;28;45454;-85
2022/03/11 06:31:09;;;;;;;;;15.67;15.67;;;;;8.09;100.00;100665.38;5057270;28;45286;-84
2022/03/11 06:33:34;;;;;;;;;17.33;14.67;;;;;8.17;100.00;100665.75;5059190;28;46118;-84
2022/03/11 06:36:00;;;;;;;;;18.67;16.67;;;;;8.25;100.00;100660.88;5064303;28;44717;-85
2022/03/11 06:38:25;;;;;;;;;18.00;16.25;;;;;8.33;100.00;100661.28;5062045;28;45695;-83
2022/03/11 06:40:51;;;;;;;;;15.50;15.50;;;;;8.41;100.00;100661.72;5057349;28;45305;-85
2022/03/11 06:43:18;;;;;;;;;19.25;14.50;;;;;8.47;100.00;100665.81;5062426;28;45166;-84
2022/03/11 06:45:43;;;;;;;;;13.00;12.50;;;;;8.54;100.00;100663.63;5067481;28;45221;-84
2022/03/11 06:48:08;;;;;;;;;14.25;12.50;;;;;8.60;100.00;100656.16;5066460;28;44737;-84
2022/03/11 06:50:34;;;;;;;;;19.00;16.25;;;;;8.69;100.00;100650.31;5061418;28;44983;-84
2022/03/11 06:52:59;;;;;;;;;16.75;16.75;;;;;8.75;100.00;100644.66;5062022;27;45242;-85
2022/03/11 06:55:24;;;;;;;;;11.00;10.25;;;;;8.83;100.00;100646.81;5076560;27;44753;-84
2022/03/11 06:57:50;;;;;;;;;19.25;16.00;;;;;8.94;100.00;100651.47;5077269;27;45399;-85
2022/03/11 07:00:16;;;;;;;;;15.00;14.00;;;;;9.00;100.00;100638.72;5076948;27;44904;-84
2022/03/11 07:02:42;;;;;;;;;16.50;15.50;;;;;9.05;100.00;100646.38;5076828;27;45319;-84
2022/03/11 07:05:08;;;;;;;;;16.75;15.25;;;;;9.11;100.00;100637.19;5076591;28;45346;-85
2022/03/11 07:07:34;;;;;;;;;13.00;10.25;;;;;9.15;100.00;100636.91;5076207;28;44811;-85
2022/03/11 07:10:00;;;;;;;;;15.00;11.00;;;;;9.23;100.00;100641.69;5078000;27;45219;-84
2022/03/11 07:12:27;;;;;;;;;14.00;13.75;;;;;9.27;100.00;100640.56;5076945;27;45533;-84
2022/03/11 07:14:53;;;;;;;;;16.50;10.75;;;;;9.33;100.00;100639.31;5076262;27;45145;-84
2022/03/11 07:17:18;;;;;;;;;16.00;11.75;;;;;9.38;100.00;100640.75;5076286;27;45214;-85
2022/03/11 07:19:43;;;;;;;;;16.50;11.00;;;;;9.46;100.00;100640.25;5078162;28;45511;-84
2022/03/11 07:22:09;;;;;;;;;15.75;11.75;;;;;9.49;100.00;100637.41;5084161;27;46495;-84
2022/03/11 07:24:34;;;;;;;;;17.00;12.50;;;;;9.57;100.00;100632.44;5083177;27;44820;-85
2022/03/11 07:27:00;;;;;;;;;9.75;8.75;;;;;9.62;100.00;100632.16;5083277;27;45111;-84
2022/03/11 07:29:25;;;;;;;;;11.50;9.25;;;;;9.62;100.00;100630.38;5082580;27;44840;-85
2022/03/11 07:31:51;;;;;;;;;11.00;9.75;;;;;9.69;100.00;100630.81;5081324;27;45370;-86
2022/03/11 07:34:16;;;;;;;;;11.50;10.00;;;;;9.76;100.00;100626.81;5080427;27;44836;-84
2022/03/11 07:36:42;;;;;;;;;10.00;10.00;;;;;9.81;100.00;100616.75;5079985;27;44835;-84
2022/03/11 07:39:10;;;;;;;;;9.50;9.25;;;;;9.86;100.00;100619.09;5079689;27;44807;-85
2022/03/11 07:41:36;;;;;;;;;12.25;10.00;;;;;9.88;100.00;100618.06;5079707;27;45227;-83
2022/03/11 07:44:02;;;;;;;;;10.25;9.25;;;;;9.94;100.00;100611.50;5079119;27;45501;-85
2022/03/11 07:46:29;;;;;;;;;8.25;8.00;;;;;10.00;100.00;100611.91;5078970;28;44796;-85
2022/03/11 07:48:55;;;;;;;;;11.75;10.75;;;;;10.11;100.00;100613.03;5079326;27;44881;-84
2022/03/11 07:51:22;;;;;;;;;13.50;10.50;;;;;10.20;100.00;100600.00;5078838;27;45439;-86
2022/03/11 07:53:47;;;;;;;;;8.00;8.00;;;;;10.25;100.00;100605.00;5066205;27;45395;-85
2022/03/11 07:56:14;;;;;;;;;9.25;9.00;;;;;10.30;100.00;100600.25;5059694;27;44838;-85
2022/03/11 07:58:41;;;;;;;;;16.00;13.00;;;;;10.36;100.00;100598.97;5063967;28;44813;-83
2022/03/11 08:01:11;;;;;;;;;18.25;12.25;;;;;10.42;100.00;100587.94;5063938;28;45320;-84
2022/03/11 08:03:38;;;;;;;;;10.80;10.40;;;;;10.48;100.00;100584.84;5058572;28;44963;-84
2022/03/11 08:06:05;;;;;;;;;9.50;9.00;;;;;10.54;100.00;100592.41;5059742;28;44852;-84
2022/03/11 08:08:31;;;;;;;;;10.00;8.00;;;;;10.62;100.00;100575.94;5058485;28;45381;-85
2022/03/11 08:10:57;;;;;;;;;12.50;10.50;;;;;10.72;100.00;100582.28;5057733;27;46561;-84
2022/03/11 08:13:23;;;;;;;;;13.75;11.00;;;;;10.86;100.00;100586.63;5059054;28;45391;-85
2022/03/11 08:15:49;;;;;;;;;11.00;11.00;;;;;10.96;100.00;100585.03;5057910;27;45485;-84
2022/03/11 08:18:15;;;;;;;;;9.50;7.75;;;;;11.14;100.00;100582.88;5060178;27;44836;-85
2022/03/11 08:20:40;;;;;;;;;9.75;8.75;;;;;11.27;100.00;100583.69;5061826;28;46646;-84
2022/03/11 08:23:07;;;;;;;;;10.75;9.75;;;;;11.38;100.00;100573.13;5059986;28;44955;-86
2022/03/11 08:25:33;;;;;;;;;8.00;8.00;;;;;11.45;100.00;100570.84;5060663;28;45231;-84
2022/03/11 08:27:59;;;;;;;;;5.00;4.00;;;;;11.52;100.00;100574.78;5061951;28;45300;-84
2022/03/11 08:30:25;;;;;;;;;9.75;7.25;;;;;11.57;100.00;100572.63;5062601;28;44985;-84
2022/03/11 08:32:52;;;;;;;;;10.00;8.00;;;;;11.65;100.00;100561.41;5063825;27;45323;-84
2022/03/11 08:35:18;;;;;;;;;9.40;9.40;;;;;11.76;100.00;100561.47;5065158;28;45252;-84
2022/03/11 08:37:43;;;;;;;;;9.25;8.00;;;;;11.82;100.00;100558.38;5064958;28;45386;-85
2022/03/11 08:40:10;;;;;;;;;8.25;7.50;;;;;11.94;100.00;100561.91;5064398;28;46448;-85
2022/03/11 08:42:37;;;;;;;;;8.00;7.80;;;;;12.07;100.00;100546.72;5063114;28;44807;-85
2022/03/11 08:45:07;;;;;;;;;10.00;8.60;;;;;12.16;100.00;100543.34;5063288;28;45202;-85
2022/03/11 08:47:33;;;;;;;;;9.75;7.75;;;;;12.30;100.00;100553.78;5064991;28;45212;-84
2022/03/11 08:49:58;;;;;;;;;9.50;7.75;;;;;12.39;100.00;100549.56;5065085;28;44973;-85
2022/03/11 08:52:28;;;;;;;;;9.00;9.00;;;;;12.48;100.00;100545.34;5066600;27;44851;-85
2022/03/11 08:54:54;;;;;;;;;6.00;6.00;;;;;12.59;100.00;100548.00;5084717;27;45286;-84
2022/03/11 08:57:19;;;;;;;;;7.00;7.00;;;;;12.62;100.00;100539.78;5086483;27;44909;-85
2022/03/11 08:59:45;;;;;;;;;9.75;8.75;;;;;12.70;100.00;100541.84;5083189;27;45186;-85
2022/03/11 09:02:10;;;;;;;;;5.80;5.80;;;;;12.70;100.00;100542.69;5077868;27;44992;-84
2022/03/11 09:04:36;;;;;;;;;9.75;8.00;;;;;12.75;100.00;100537.84;5080364;27;45278;-85
2022/03/11 09:07:03;;;;;;;;;6.00;6.00;;;;;12.80;100.00;100535.66;5090525;28;44796;-84
2022/03/11 09:09:29;;;;;;;;;5.20;5.20;;;;;12.87;100.00;100546.69;5085828;27;45088;-85
2022/03/11 09:11:55;;;;;;;;;5.40;5.00;;;;;12.94;100.00;100529.22;5083418;27;44864;-85
2022/03/11 09:14:20;;;;;;;;;5.50;4.50;;;;;12.99;100.00;100521.69;5087963;27;45291;-85
2022/03/11 09:16:46;;;;;;;;;5.00;5.00;;;;;13.09;100.00;100524.47;5077898;28;45321;-83
2022/03/11 09:19:12;;;;;;;;;6.00;5.00;;;;;13.20;100.00;100526.25;5078715;27;45988;-83
2022/03/11 09:21:37;;;;;;;;;7.50;6.00;;;;;13.25;100.00;100532.13;5081143;27;44957;-84
2022/03/11 09:24:03;;;;;;;;;4.00;4.00;;;;;13.27;100.00;100524.84;5081857;27;45344;-85
2022/03/11 09:26:28;;;;;;;;;4.75;4.75;;;;;13.31;100.00;100516.47;5083149;27;44819;-85
2022/03/11 09:28:54;;;;;;;;;5.75;3.50;;;;;13.46;100.00;100505.50;5084058;27;45331;-85
2022/03/11 09:31:20;;;;;;;;;3.00;3.00;;;;;13.67;100.00;100508.19;5079038;27;44804;-84
2022/03/11 09:33:46;;;;;;;;;4.75;4.00;;;;;13.80;100.00;100512.38;5078791;27;44779;-83
2022/03/11 09:36:12;;;;;;;;;5.25;5.25;;;;;13.92;100.00;100512.31;5076435;27;44792;-86
2022/03/11 09:38:38;;;;;;;;;5.60;5.60;;;;;13.97;100.00;100516.28;5077977;27;45181;-85
2022/03/11 09:41:04;;;;;;;;;4.00;4.00;;;;;14.07;100.00;100516.34;5077152;27;45165;-85
2022/03/11 09:43:30;;;;;;;;;4.00;4.00;;;;;14.25;100.00;100516.59;5076059;28;45363;-85
2022/03/11 09:45:57;;;;;;;;;5.40;3.80;;;;;14.34;100.00;100513.16;5078417;27;45539;-84
2022/03/11 09:48:23;;;;;;;;;4.80;3.00;;;;;14.30;100.00;100509.88;5076311;27;45221;-84
2022/03/11 09:50:49;;;;;;;;;4.20;2.40;;;;;14.26;100.00;100499.59;5081201;27;44867;-85
2022/03/11 09:53:15;;;;;;;;;3.25;2.25;;;;;14.20;100.00;100498.31;5070803;28;45456;-84
2022/03/11 09:55:42;;;;;;;;;5.20;1.00;;;;;14.09;100.00;100509.06;5056866;28;45548;-85
2022/03/11 09:58:08;;;;;;;;;2.20;2.20;;;;;14.06;100.00;100512.84;5058275;28;45340;-86
2022/03/11 10:00:33;;;;;;;;;3.00;3.00;;;;;14.17;100.00;100501.25;5062436;28;45430;-85
2022/03/11 10:02:59;;;;;;;;;2.75;2.75;;;;;14.24;100.00;100494.38;5061781;28;45347;-85
2022/03/11 10:05:44;;;;;;;;;3.00;3.00;;;;;14.23;100.00;100495.38;5056424;28;44799;-84
2022/03/11 10:08:09;;;;;;;;;3.00;2.60;;;;;14.20;100.00;100486.78;5055156;28;45668;-86
2022/03/11 10:10:35;;;;;;;;;3.00;3.00;;;;;14.12;100.00;100458.91;5056805;28;44773;-85
2022/03/11 10:13:01;;;;;;;;;2.80;2.00;;;;;14.01;100.00;100455.44;5056258;28;44853;-85
2022/03/11 10:15:28;;;;;;;;;2.75;2.75;;;;;13.91;100.00;100486.59;5057076;28;45461;-85
2022/03/11 10:17:54;;;;;;;;;3.00;3.00;;;;;13.92;100.00;100473.09;5056735;28;45211;-84
2022/03/11 10:20:19;;;;;;;;;5.00;3.00;;;;;14.00;100.00;100467.97;5056703;28;45591;-84
2022/03/11 10:22:45;;;;;;;;;2.25;2.25;;;;;14.20;100.00;100457.38;5055166;28;44698;-85
2022/03/11 10:25:16;;;;;;;;;4.75;4.50;;;;;14.53;100.00;100467.00;5059853;28;45393;-83
2022/03/11 10:28:01;;;;;;;;;3.40;3.40;;;;;14.87;100.00;100468.38;5064104;28;46622;-84
2022/03/11 10:30:28;;;;;;;;;2.40;2.40;;;;;15.22;100.00;100464.34;5064103;28;45315;-84
2022/03/11 10:32:58;;;;;;;;;3.00;3.00;;;;;15.41;100.00;100459.00;5061695;28;44709;-84
2022/03/11 10:35:34;;;;;;;;;1.80;1.80;;;;;15.48;100.00;100475.38;5060269;28;44722;-85
2022/03/11 10:38:08;;;;;;;;;3.80;2.20;;;;;15.39;100.00;100471.69;5056312;28;47280;-86
2022/03/11 10:40:39;;;;;;;;;2.60;2.60;;;;;15.47;100.00;100478.16;5055440;28;45682;-83
2022/03/11 10:43:14;;;;;;;;;4.00;4.00;;;;;15.50;100.00;100483.25;5056494;28;45236;-86
2022/03/11 10:45:49;;;;;;;;;2.00;2.00;;;;;15.45;100.00;100501.56;5056654;28;45523;-85
2022/03/11 10:48:15;;;;;;;;;2.80;2.60;;;;;15.40;100.00;100491.28;5056708;28;45064;-86
2022/03/11 10:50:41;;;;;;;;;3.00;3.00;;;;;15.35;100.00;100477.47;5058814;27;45556;-85
2022/03/11 10:53:09;;;;;;;;;4.40;3.20;;;;;15.35;100.00;100474.78;5069202;27;44813;-84
2022/03/11 10:55:38;;;;;;;;;3.00;2.00;;;;;15.34;100.00;100460.56;5077988;28;45529;-84
2022/03/11 10:58:04;;;;;;;;;2.40;2.40;;;;;15.38;100.00;100463.81;5077301;27;46172;-85
2022/03/11 11:00:32;;;;;;;;;4.00;4.00;;;;;15.40;100.00;100464.50;5080775;27;44748;-86
2022/03/11 11:03:08;;;;;;;;;4.20;3.00;;;;;15.36;100.00;100477.31;5081758;27;45212;-84
2022/03/11 11:05:35;;;;;;;;;3.00;3.00;;;;;15.29;100.00;100488.72;5085297;27;45181;-85
2022/03/11 11:08:03;;;;;;;;;7.40;3.00;;;;;15.21;100.00;100480.53;5082539;27;45211;-85